Time;durP1;ratioP1;P1;durP2;ratioP2;P2;SDS_P1;SDS_P2;PMS_P1;PMS_P2;Temp;Humidity;BMP_temperature;BMP_pressure;BME280_temperature;BME280_humidity;BME280_pressure;Samples;Min_cycle;Max_cycle;Signal;HPM_P1;HPM_P2
2021/03/21 00:01:18;;;;;;;8.70;5.58;;;;;;;-2.26;86.48;99599.48;1750570;82;21118;-62
2021/03/21 00:03:46;;;;;;;7.80;5.72;;;;;;;-2.23;86.64;99590.61;1750636;81;21111;-62
2021/03/21 00:06:14;;;;;;;6.08;4.80;;;;;;;-2.18;86.94;99589.80;1750591;80;21390;-62
2021/03/21 00:08:43;;;;;;;6.12;5.33;;;;;;;-2.10;87.04;99587.35;1750491;80;21182;-62
2021/03/21 00:11:11;;;;;;;6.12;4.80;;;;;;;-2.03;87.06;99595.52;1750599;80;21066;-62
2021/03/21 00:13:39;;;;;;;7.90;5.70;;;;;;;-1.98;87.11;99585.34;1750646;80;21054;-61
2021/03/21 00:16:07;;;;;;;7.45;4.95;;;;;;;-1.95;87.01;99587.51;1750629;80;21162;-61
2021/03/21 00:18:38;;;;;;;6.47;5.35;;;;;;;-1.93;86.99;99587.11;1750595;82;21208;-63
2021/03/21 00:21:07;;;;;;;7.12;5.50;;;;;;;-1.92;86.98;99581.17;1750627;80;21133;-61
2021/03/21 00:23:34;;;;;;;6.75;5.55;;;;;;;-1.92;87.05;99575.22;1750588;82;21129;-61
2021/03/21 00:26:04;;;;;;;6.30;5.50;;;;;;;-1.91;87.01;99576.51;1750554;81;21058;-62
2021/03/21 00:28:34;;;;;;;7.28;5.55;;;;;;;-1.92;86.98;99579.04;1750495;81;21242;-61
2021/03/21 00:31:01;;;;;;;6.67;5.05;;;;;;;-1.92;86.92;99573.95;1750710;80;22272;-62
2021/03/21 00:33:32;;;;;;;6.83;5.00;;;;;;;-1.94;86.85;99575.62;1750531;82;21484;-62
2021/03/21 00:35:59;;;;;;;6.72;5.03;;;;;;;-1.96;86.79;99577.30;1750625;82;21042;-62
2021/03/21 00:38:39;;;;;;;7.12;5.30;;;;;;;-1.99;86.73;99582.36;1750603;80;21558;-61
2021/03/21 00:41:08;;;;;;;7.67;5.78;;;;;;;-2.03;86.73;99576.39;1750595;80;21589;-61
2021/03/21 00:43:35;;;;;;;8.33;5.20;;;;;;;-2.05;86.67;99574.25;1750665;82;22288;-63
2021/03/21 00:46:05;;;;;;;8.45;5.65;;;;;;;-2.09;86.63;99582.27;1750552;82;21497;-61
2021/03/21 00:48:36;;;;;;;7.33;5.40;;;;;;;-2.11;86.55;99571.63;1750567;81;21058;-62
2021/03/21 00:51:05;;;;;;;7.30;5.75;;;;;;;-2.14;86.53;99566.48;1750660;82;21157;-60
2021/03/21 00:53:33;;;;;;;7.80;5.17;;;;;;;-2.16;86.53;99570.30;1750612;82;21494;-60
2021/03/21 00:56:00;;;;;;;5.92;4.97;;;;;;;-2.18;86.52;99566.02;1750678;82;21215;-61
2021/03/21 00:58:28;;;;;;;8.80;5.83;;;;;;;-2.19;86.45;99566.84;1750498;82;21582;-61
2021/03/21 01:00:58;;;;;;;5.78;5.08;;;;;;;-2.21;86.48;99563.05;1750565;82;21114;-61
2021/03/21 01:03:26;;;;;;;6.83;5.50;;;;;;;-2.22;86.36;99561.75;1750670;80;21574;-61
2021/03/21 01:06:01;;;;;;;5.87;4.47;;;;;;;-2.23;86.41;99558.77;1750544;81;21185;-61
2021/03/21 01:08:36;;;;;;;5.75;4.78;;;;;;;-2.23;86.31;99556.22;1750541;80;21196;-61
2021/03/21 01:11:09;;;;;;;6.70;5.25;;;;;;;-2.25;86.26;99554.92;1750536;82;21145;-61
2021/03/21 01:13:37;;;;;;;9.28;5.10;;;;;;;-2.24;86.20;99556.63;1750685;82;21570;-61
2021/03/21 01:16:10;;;;;;;6.50;5.33;;;;;;;-2.24;86.07;99553.23;1750517;82;21165;-62
2021/03/21 01:18:38;;;;;;;6.75;5.40;;;;;;;-2.24;86.03;99551.95;1750601;82;21397;-61
2021/03/21 01:21:11;;;;;;;6.10;5.10;;;;;;;-2.26;85.97;99549.81;1750541;82;21636;-62
2021/03/21 01:23:39;;;;;;;6.95;5.03;;;;;;;-2.28;85.95;99551.06;1750583;81;21137;-62
2021/03/21 01:26:10;;;;;;;7.67;5.10;;;;;;;-2.29;86.00;99549.35;1750541;80;21109;-60
2021/03/21 01:28:38;;;;;;;10.10;5.95;;;;;;;-2.29;85.98;99545.53;1751489;81;21130;-60
2021/03/21 01:31:10;;;;;;;6.37;5.15;;;;;;;-2.29;85.99;99544.67;1767555;81;21613;-61
2021/03/21 01:33:38;;;;;;;8.27;6.07;;;;;;;-2.31;85.92;99543.37;1767785;81;21373;-61
2021/03/21 01:36:13;;;;;;;6.50;4.95;;;;;;;-2.31;85.94;99542.53;1767515;81;21578;-61
2021/03/21 01:38:40;;;;;;;6.25;4.72;;;;;;;-2.33;85.89;99539.95;1767624;81;21475;-61
2021/03/21 01:41:16;;;;;;;6.60;5.25;;;;;;;-2.35;85.83;99540.36;1767474;80;21554;-61
2021/03/21 01:43:44;;;;;;;7.53;5.80;;;;;;;-2.36;85.78;99537.79;1767545;81;21056;-61
2021/03/21 01:46:37;;;;;;;7.62;5.92;;;;;;;-2.40;85.87;99536.92;1767512;80;21375;-61
2021/03/21 01:49:22;;;;;;;8.33;6.00;;;;;;;-2.41;85.85;99538.18;1767437;80;21122;-61
2021/03/21 01:51:51;;;;;;;9.70;5.30;;;;;;;-2.45;85.90;99538.56;1765813;81;21141;-61
2021/03/21 01:54:20;;;;;;;6.03;4.40;;;;;;;-2.47;85.88;99538.54;1767466;81;21139;-61
2021/03/21 01:56:47;;;;;;;6.58;5.00;;;;;;;-2.49;85.91;99538.08;1767506;80;21126;-61
2021/03/21 01:59:25;;;;;;;5.87;4.92;;;;;;;-2.50;85.99;99535.95;1767486;80;22702;-61
2021/03/21 02:01:54;;;;;;;6.87;5.30;;;;;;;-2.51;86.00;99538.48;1767431;80;21075;-62
2021/03/21 02:04:22;;;;;;;8.35;5.78;;;;;;;-2.52;86.10;99534.22;1767597;81;21495;-61
2021/03/21 02:07:00;;;;;;;10.25;5.65;;;;;;;-2.54;86.08;99534.62;1767466;80;21531;-61
2021/03/21 02:09:44;;;;;;;6.83;5.55;;;;;;;-2.58;86.05;99527.77;1767545;81;21138;-61
2021/03/21 02:12:40;;;;;;;7.78;5.42;;;;;;;-2.61;86.11;99529.89;1767336;80;21392;-61
2021/03/21 02:15:27;;;;;;;6.75;5.87;;;;;;;-2.64;86.15;99527.72;1767477;80;21108;-61
2021/03/21 02:18:20;;;;;;;9.13;5.72;;;;;;;-2.67;86.31;99524.72;1767580;81;21591;-61
2021/03/21 02:21:10;;;;;;;7.42;5.72;;;;;;;-2.69;86.27;99525.52;1767559;81;21558;-61
2021/03/21 02:24:11;;;;;;;8.03;6.00;;;;;;;-2.72;86.41;99526.34;1767525;81;21142;-61
2021/03/21 02:27:08;;;;;;;8.68;6.00;;;;;;;-2.74;86.37;99523.33;1767478;80;22295;-61
2021/03/21 02:29:58;;;;;;;8.50;6.10;;;;;;;-2.79;86.39;99526.67;1766431;80;21091;-61
2021/03/21 02:32:34;;;;;;;8.85;6.60;;;;;;;-2.81;86.39;99529.64;1764483;81;21102;-61
2021/03/21 02:35:31;;;;;;;10.58;6.60;;;;;;;-2.84;86.42;99522.38;1764529;80;21507;-61
2021/03/21 02:38:11;;;;;;;8.55;6.55;;;;;;;-2.87;86.40;99524.88;1764535;80;21067;-61
2021/03/21 02:40:48;;;;;;;7.37;5.62;;;;;;;-2.89;86.43;99527.41;1764465;81;21351;-61
2021/03/21 02:43:22;;;;;;;7.47;5.92;;;;;;;-2.92;86.48;99523.54;1748143;81;21171;-61
2021/03/21 02:46:07;;;;;;;10.20;5.85;;;;;;;-2.90;86.46;99521.87;1873620;76;22753;-61
2021/03/21 02:48:40;;;;;;;10.80;6.00;;;;;;;-2.94;86.53;99523.94;1841185;78;21510;-61
2021/03/21 02:51:12;;;;;;;8.10;6.00;;;;;;;-2.92;86.58;99525.23;1841756;78;22399;-61
2021/03/21 02:53:50;;;;;;;7.70;5.83;;;;;;;-2.93;86.62;99526.91;1841481;78;21636;-61
2021/03/21 02:56:21;;;;;;;8.80;5.83;;;;;;;-2.93;86.40;99520.55;1841562;78;20931;-61
2021/03/21 02:58:56;;;;;;;8.43;5.80;;;;;;;-2.96;86.35;99517.11;1810696;78;21109;-61
2021/03/21 03:01:30;;;;;;;8.85;6.10;;;;;;;-2.98;86.33;99514.95;1838877;78;21529;-61
2021/03/21 03:04:02;;;;;;;7.37;5.58;;;;;;;-3.02;86.36;99516.64;1841681;78;21330;-61
2021/03/21 03:06:35;;;;;;;6.93;5.77;;;;;;;-3.02;86.38;99517.05;1841763;78;20978;-61
2021/03/21 03:09:16;;;;;;;7.15;5.62;;;;;;;-3.02;86.48;99511.96;1841717;78;21510;-61
2021/03/21 03:11:53;;;;;;;7.50;5.72;;;;;;;-3.04;86.36;99515.76;1841562;78;20998;-61
2021/03/21 03:14:31;;;;;;;8.40;6.53;;;;;;;-3.05;86.30;99508.10;1841717;77;21549;-61
2021/03/21 03:17:37;;;;;;;10.45;7.03;;;;;;;-3.06;86.25;99511.06;1841540;78;21357;-61
2021/03/21 03:20:34;;;;;;;9.08;6.80;;;;;;;-3.08;86.20;99515.69;1841580;78;21057;-61
2021/03/21 03:23:31;;;;;;;12.50;7.60;;;;;;;-3.10;86.31;99510.99;1841577;78;21120;-60
2021/03/21 03:26:06;;;;;;;12.53;7.72;;;;;;;-3.13;86.37;99512.66;1841397;78;21125;-61
2021/03/21 03:28:38;;;;;;;9.80;6.85;;;;;;;-3.15;86.25;99514.31;1841591;78;21136;-61
2021/03/21 03:31:16;;;;;;;8.83;6.65;;;;;;;-3.19;86.35;99512.97;1841713;78;21310;-61
2021/03/21 03:33:44;;;;;;;8.30;6.50;;;;;;;-3.22;86.36;99517.63;1841463;78;21061;-61
2021/03/21 03:36:14;;;;;;;9.35;6.37;;;;;;;-3.25;86.21;99521.81;1841533;78;21065;-61
2021/03/21 03:38:45;;;;;;;9.83;7.17;;;;;;;-3.31;86.22;99521.30;1841535;77;21148;-60
2021/03/21 03:41:30;;;;;;;9.83;7.03;;;;;;;-3.34;86.14;99520.39;1828014;78;21093;-61
2021/03/21 03:44:30;;;;;;;11.78;7.22;;;;;;;-3.38;86.26;99519.48;1808284;79;21376;-61
2021/03/21 03:47:21;;;;;;;11.90;7.37;;;;;;;-3.39;86.40;99519.05;1808461;79;20950;-61
2021/03/21 03:50:03;;;;;;;9.88;7.05;;;;;;;-3.40;86.43;99511.01;1808601;78;21481;-61
2021/03/21 03:52:51;;;;;;;10.65;7.47;;;;;;;-3.41;86.49;99512.25;1808469;78;21109;-61
2021/03/21 03:55:38;;;;;;;15.00;8.13;;;;;;;-3.43;86.54;99507.14;1808447;78;21033;-61
2021/03/21 03:58:26;;;;;;;18.40;8.58;;;;;;;-3.42;86.69;99514.36;1808029;79;21466;-61
2021/03/21 04:01:14;;;;;;;13.72;9.10;;;;;;;-3.44;86.59;99510.93;1807852;79;20947;-61
2021/03/21 04:03:52;;;;;;;20.00;8.03;;;;;;;-3.47;86.74;99510.05;1807908;79;21096;-61
2021/03/21 04:06:40;;;;;;;9.10;6.58;;;;;;;-3.44;87.02;99506.70;1807935;79;21129;-61
2021/03/21 04:09:18;;;;;;;9.70;7.10;;;;;;;-3.42;86.95;99511.81;1807904;78;21069;-61
2021/03/21 04:11:54;;;;;;;16.07;7.90;;;;;;;-3.41;86.93;99510.56;1807979;79;21369;-61
2021/03/21 04:14:42;;;;;;;19.07;8.15;;;;;;;-3.37;87.06;99505.09;1807943;79;21581;-61
2021/03/21 04:17:30;;;;;;;12.43;7.85;;;;;;;-3.26;87.32;99505.70;1807648;79;21152;-61
2021/03/21 04:20:09;;;;;;;18.23;8.23;;;;;;;-3.12;87.29;99505.87;1808041;79;21477;-61
2021/03/21 04:22:43;;;;;;;10.50;8.43;;;;;;;-3.00;87.07;99506.48;1808046;79;21509;-61
2021/03/21 04:25:19;;;;;;;13.05;7.00;;;;;;;-2.89;87.13;99506.19;1807989;78;22101;-61
2021/03/21 04:27:54;;;;;;;11.43;7.85;;;;;;;-2.72;87.13;99510.20;1807960;79;21502;-61
2021/03/21 04:30:32;;;;;;;10.80;7.55;;;;;;;-2.52;87.08;99508.34;1807916;79;20947;-61
2021/03/21 04:33:00;;;;;;;9.78;6.80;;;;;;;-2.32;86.72;99506.01;1807070;79;21192;-60
2021/03/21 04:35:41;;;;;;;8.83;6.90;;;;;;;-2.14;86.42;99507.47;1779380;79;21145;-61
2021/03/21 04:38:34;;;;;;;12.90;8.13;;;;;;;-1.95;86.13;99503.81;1807853;79;21041;-62
2021/03/21 04:41:03;;;;;;;12.10;7.33;;;;;;;-1.77;85.79;99498.87;1778808;79;21549;-60
2021/03/21 04:43:35;;;;;;;11.25;8.48;;;;;;;-1.62;85.12;99499.02;1807867;79;21137;-61
2021/03/21 04:46:11;;;;;;;10.00;7.03;;;;;;;-1.53;84.72;99505.87;1779473;79;21077;-61
2021/03/21 04:48:39;;;;;;;9.50;7.37;;;;;;;-1.51;84.57;99505.46;1807999;78;21494;-61
2021/03/21 04:51:12;;;;;;;10.78;8.25;;;;;;;-1.49;84.43;99500.81;1807862;78;21383;-61
2021/03/21 04:54:02;;;;;;;10.30;7.70;;;;;;;-1.48;84.43;99498.69;1807949;79;21589;-61
2021/03/21 04:56:45;;;;;;;10.13;7.90;;;;;;;-1.45;84.33;99498.72;1807882;79;21014;-61
2021/03/21 04:59:25;;;;;;;10.17;7.80;;;;;;;-1.42;84.21;99494.06;1786850;78;21152;-61
2021/03/21 05:02:04;;;;;;;11.20;7.78;;;;;;;-1.39;84.12;99490.23;1807926;79;21132;-61
2021/03/21 05:04:36;;;;;;;10.20;7.58;;;;;;;-1.39;83.91;99491.51;1807847;78;21366;-61
2021/03/21 05:07:14;;;;;;;12.23;8.50;;;;;;;-1.37;83.93;99489.82;1807914;79;21573;-61
2021/03/21 05:09:46;;;;;;;9.45;7.72;;;;;;;-1.32;83.79;99490.71;1781601;78;21025;-61
2021/03/21 05:12:37;;;;;;;12.33;8.88;;;;;;;-1.25;83.69;99482.69;1807861;79;21148;-61
2021/03/21 05:15:32;;;;;;;11.48;9.33;;;;;;;-1.17;83.50;99486.97;1807921;79;21488;-61
2021/03/21 05:18:33;;;;;;;17.87;10.23;;;;;;;-1.07;83.30;99478.95;1807948;79;22125;-61
2021/03/21 05:21:44;;;;;;;12.70;9.25;;;;;;;-0.99;83.02;99478.55;1807814;79;21565;-61
2021/03/21 05:24:28;;;;;;;11.40;9.15;;;;;;;-0.90;82.81;99478.61;1807845;79;21538;-61
2021/03/21 05:27:04;;;;;;;17.25;8.90;;;;;;;-0.87;82.34;99470.12;1807964;78;21065;-61
2021/03/21 05:30:10;;;;;;;15.13;9.05;;;;;;;-0.82;82.21;99472.28;1807888;79;21132;-61
2021/03/21 05:32:38;;;;;;;13.60;9.10;;;;;;;-0.78;81.90;99471.41;1807859;79;21375;-61
2021/03/21 05:35:07;;;;;;;13.38;9.68;;;;;;;-0.75;81.41;99471.01;1807863;79;21061;-61
2021/03/21 05:38:14;;;;;;;14.33;9.75;;;;;;;-0.72;81.27;99469.75;1807913;78;21454;-61
2021/03/21 05:40:58;;;;;;;17.50;12.18;;;;;;;-0.66;81.30;99470.20;1807782;78;20986;-62
2021/03/21 05:44:05;;;;;;;15.78;10.43;;;;;;;-0.56;80.76;99464.69;1795841;79;21048;-62
2021/03/21 05:46:47;;;;;;;13.20;8.70;;;;;;;-0.50;80.32;99465.98;1807695;79;21381;-61
2021/03/21 05:50:04;;;;;;;15.53;9.23;;;;;;;-0.42;79.40;99469.43;1807749;78;21609;-62
2021/03/21 05:53:00;;;;;;;16.23;9.05;;;;;;;-0.22;78.94;99471.60;1890088;75;23236;-61
2021/03/21 05:55:39;;;;;;;15.98;9.75;;;;;;;-0.14;77.56;99473.73;1860946;77;21068;-62
2021/03/21 05:58:24;;;;;;;12.70;9.78;;;;;;;-0.05;77.06;99475.45;1861008;77;21482;-62
2021/03/21 06:01:32;;;;;;;14.83;9.53;;;;;;;0.09;76.40;99470.34;1861019;77;21572;-61
2021/03/21 06:04:44;;;;;;;14.18;8.65;;;;;;;0.18;74.48;99465.25;1860916;77;21001;-61
2021/03/21 06:07:46;;;;;;;14.33;8.30;;;;;;;0.19;74.01;99469.52;1860977;77;20914;-62
2021/03/21 06:10:42;;;;;;;19.12;9.98;;;;;;;0.25;73.53;99474.18;1860934;77;21001;-62
2021/03/21 06:13:33;;;;;;;18.12;9.95;;;;;;;0.31;72.98;99462.67;1860973;77;21264;-62
2021/03/21 06:16:40;;;;;;;16.00;9.45;;;;;;;0.39;72.30;99465.67;1860080;77;21150;-63
2021/03/21 06:19:49;;;;;;;25.15;10.18;;;;;;;0.47;71.98;99462.23;1860752;77;20933;-62
2021/03/21 06:23:02;;;;;;;13.70;9.33;;;;;;;0.53;71.61;99454.98;1860776;77;21100;-62
2021/03/21 06:26:14;;;;;;;11.57;9.00;;;;;;;0.62;70.80;99463.48;1861179;77;21037;-62
2021/03/21 06:29:28;;;;;;;44.75;14.28;;;;;;;0.65;70.27;99458.36;1860889;77;21370;-62
2021/03/21 06:32:40;;;;;;;20.17;10.13;;;;;;;0.66;70.55;99448.98;1860800;77;21065;-63
2021/03/21 06:35:44;;;;;;;16.05;9.98;;;;;;;0.69;70.36;99442.58;1861111;77;20973;-63
2021/03/21 06:38:35;;;;;;;27.93;12.20;;;;;;;0.72;70.14;99438.73;1860900;77;21140;-63
2021/03/21 06:41:55;;;;;;;22.82;11.75;;;;;;;0.80;70.35;99433.61;1815199;77;21143;-63
2021/03/21 06:45:08;;;;;;;14.13;9.98;;;;;;;0.89;69.92;99439.96;1827159;78;21454;-63
2021/03/21 06:47:44;;;;;;;16.20;9.28;;;;;;;0.97;69.55;99439.09;1827193;78;21072;-62
2021/03/21 06:50:32;;;;;;;20.15;10.10;;;;;;;1.03;69.02;99436.48;1827296;78;21536;-63
2021/03/21 06:53:25;;;;;;;15.85;9.95;;;;;;;1.09;69.25;99438.61;1789713;78;21052;-62
2021/03/21 06:55:58;;;;;;;11.73;9.13;;;;;;;1.17;69.25;99435.61;1827330;78;21559;-62
2021/03/21 06:58:50;;;;;;;15.00;9.73;;;;;;;1.27;68.14;99426.58;1827338;78;21146;-62
2021/03/21 07:01:42;;;;;;;15.68;10.43;;;;;;;1.28;67.42;99426.15;1827134;78;21084;-61
2021/03/21 07:04:41;;;;;;;16.12;11.60;;;;;;;1.25;67.20;99419.75;1826555;78;21060;-62
2021/03/21 07:07:30;;;;;;;49.08;14.60;;;;;;;1.26;66.82;99417.19;1826607;78;21048;-61
2021/03/21 07:10:36;;;;;;;18.55;11.45;;;;;;;1.27;66.19;99416.33;1824219;78;21052;-61
2021/03/21 07:13:28;;;;;;;18.42;11.00;;;;;;;1.32;66.32;99415.88;1826670;78;22248;-62
2021/03/21 07:16:31;;;;;;;23.50;11.53;;;;;;;1.44;65.37;99417.94;1826708;78;21448;-63
2021/03/21 07:19:25;;;;;;;29.42;12.30;;;;;;;1.54;65.29;99410.64;1818470;78;21597;-61
2021/03/21 07:22:22;;;;;;;15.68;10.90;;;;;;;1.67;64.98;99401.56;1826651;78;21111;-62
2021/03/21 07:25:25;;;;;;;17.87;10.08;;;;;;;1.79;63.91;99404.49;1826022;78;21159;-62
2021/03/21 07:28:28;;;;;;;31.42;12.07;;;;;;;1.89;63.46;99398.42;1826565;78;21374;-62
2021/03/21 07:31:51;;;;;;;26.85;12.75;;;;;;;1.95;63.68;99391.97;1826613;78;21064;-63
2021/03/21 07:34:36;;;;;;;43.52;12.73;;;;;;;2.13;63.81;99394.80;1826536;78;21037;-62
2021/03/21 07:37:18;;;;;;;19.48;10.98;;;;;;;2.30;63.18;99394.22;1826544;78;21096;-62
2021/03/21 07:40:13;;;;;;;21.75;12.90;;;;;;;2.41;62.28;99391.09;1826894;78;21040;-62
2021/03/21 07:43:28;;;;;;;16.50;11.18;;;;;;;2.56;61.84;99386.27;1826617;77;22098;-63
2021/03/21 07:46:27;;;;;;;78.67;17.77;;;;;;;2.67;61.05;99378.43;1751145;81;21170;-62
2021/03/21 07:49:11;;;;;;;19.25;12.25;;;;;;;2.75;61.33;99375.35;1751291;82;21154;-63
2021/03/21 07:51:51;;;;;;;33.13;12.43;;;;;;;2.89;60.20;99369.61;1818418;78;21052;-62
2021/03/21 07:54:27;;;;;;;31.68;14.40;;;;;;;2.85;59.13;99378.22;1826391;78;21592;-63
2021/03/21 07:57:20;;;;;;;21.73;15.35;;;;;;;2.69;59.34;99376.70;1826646;78;22190;-62
2021/03/21 07:59:48;;;;;;;15.13;11.10;;;;;;;2.58;58.68;99372.98;1826595;78;21060;-63
2021/03/21 08:02:25;;;;;;;19.92;12.20;;;;;;;2.40;58.40;99369.30;1826505;78;21465;-62
2021/03/21 08:04:57;;;;;;;26.40;13.08;;;;;;;2.25;58.81;99374.59;1826543;78;21088;-64
2021/03/21 08:07:33;;;;;;;37.20;13.60;;;;;;;2.11;59.09;99368.74;1826575;78;21096;-62
2021/03/21 08:10:01;;;;;;;27.25;14.93;;;;;;;1.99;59.67;99369.28;1826586;78;22160;-62
2021/03/21 08:12:41;;;;;;;22.67;12.65;;;;;;;1.95;60.16;99364.18;1826420;78;20891;-61
2021/03/21 08:15:18;;;;;;;23.07;11.90;;;;;;;1.99;60.68;99360.73;1826466;78;21036;-61
2021/03/21 08:18:03;;;;;;;24.65;12.63;;;;;;;2.18;60.75;99353.29;1826527;78;21124;-61
2021/03/21 08:20:34;;;;;;;17.77;12.68;;;;;;;2.30;59.53;99342.89;1826557;78;21179;-63
2021/03/21 08:23:30;;;;;;;24.45;12.47;;;;;;;2.40;59.28;99341.06;1826536;78;21371;-62
2021/03/21 08:26:01;;;;;;;25.17;16.77;;;;;;;2.48;59.45;99326.87;1826475;78;21076;-63
2021/03/21 08:28:37;;;;;;;23.60;13.48;;;;;;;2.58;59.68;99326.77;1826506;78;21057;-62
2021/03/21 08:31:08;;;;;;;31.25;13.75;;;;;;;2.68;58.91;99324.49;1826499;78;21168;-61
2021/03/21 08:33:40;;;;;;;33.88;13.68;;;;;;;2.74;57.70;99320.57;1826513;78;21045;-62
2021/03/21 08:36:25;;;;;;;21.45;12.33;;;;;;;2.72;56.10;99308.19;1826524;78;21358;-62
2021/03/21 08:39:22;;;;;;;24.92;12.05;;;;;;;2.63;55.84;99313.41;1826585;78;21112;-62
2021/03/21 08:41:55;;;;;;;39.40;15.00;;;;;;;2.52;56.37;99307.57;1826458;77;21195;-62
2021/03/21 08:44:36;;;;;;;24.10;12.45;;;;;;;2.35;55.99;99303.92;1826583;78;21600;-63
2021/03/21 08:47:04;;;;;;;23.15;13.90;;;;;;;2.22;57.03;99294.63;1826525;78;21107;-62
2021/03/21 08:49:38;;;;;;;28.47;14.40;;;;;;;2.12;57.64;99296.89;1826457;78;21197;-63
2021/03/21 08:52:10;;;;;;;41.58;15.45;;;;;;;2.01;58.04;99291.86;1826258;78;21155;-62
2021/03/21 08:54:41;;;;;;;23.67;14.10;;;;;;;2.02;58.53;99290.98;1826729;78;21473;-62
2021/03/21 08:57:31;;;;;;;21.17;13.62;;;;;;;2.13;58.96;99284.48;1826555;78;21060;-61
2021/03/21 09:00:29;;;;;;;24.85;13.50;;;;;;;2.23;58.26;99282.22;1826585;78;21085;-63
2021/03/21 09:02:57;;;;;;;41.58;13.95;;;;;;;2.28;57.32;99275.33;1826430;78;21367;-62
2021/03/21 09:05:25;;;;;;;71.87;15.95;;;;;;;2.26;57.09;99271.08;1826439;78;21548;-63
2021/03/21 09:08:04;;;;;;;19.00;13.98;;;;;;;2.25;57.47;99277.08;1826515;78;21128;-63
2021/03/21 09:10:36;;;;;;;15.83;11.95;;;;;;;2.29;57.42;99266.77;1826471;78;21124;-62
2021/03/21 09:13:15;;;;;;;22.15;12.53;;;;;;;2.40;56.94;99258.92;1826435;78;21524;-62
2021/03/21 09:15:48;;;;;;;34.18;14.03;;;;;;;2.47;57.50;99261.84;1826437;78;21326;-62
2021/03/21 09:18:32;;;;;;;18.50;13.30;;;;;;;2.58;57.23;99257.45;1873543;75;22669;-62
2021/03/21 09:21:26;;;;;;;18.02;12.33;;;;;;;2.59;57.77;99248.88;1873532;76;22718;-62
2021/03/21 09:24:08;;;;;;;31.45;12.93;;;;;;;2.57;56.32;99259.59;1841562;77;21199;-62
2021/03/21 09:26:40;;;;;;;58.13;17.62;;;;;;;2.51;55.98;99254.96;1841585;77;21361;-62
2021/03/21 09:29:32;;;;;;;30.40;13.88;;;;;;;2.48;56.93;99253.28;1839242;77;26121;-61
2021/03/21 09:32:06;;;;;;;23.98;13.68;;;;;;;2.56;57.10;99239.08;1841501;77;21089;-63
2021/03/21 09:35:03;;;;;;;86.57;18.32;;;;;;;2.69;57.27;99244.02;1841657;78;21486;-62
2021/03/21 09:37:34;;;;;;;22.10;14.28;;;;;;;2.79;57.01;99243.91;1832247;77;21105;-63
2021/03/21 09:40:28;;;;;;;18.90;12.93;;;;;;;2.85;55.65;99238.66;1841529;77;21358;-63
2021/03/21 09:42:59;;;;;;;49.85;14.58;;;;;;;2.85;55.32;99233.09;1808452;79;21069;-62
2021/03/21 09:45:27;;;;;;;35.90;14.73;;;;;;;2.85;54.93;99233.09;1808492;78;20962;-62
2021/03/21 09:48:02;;;;;;;42.13;15.95;;;;;;;2.88;55.36;99224.50;1808467;79;21054;-62
2021/03/21 09:51:13;;;;;;;23.90;14.03;;;;;;;2.94;54.99;99220.56;1808506;79;21101;-63
2021/03/21 09:53:58;;;;;;;45.05;13.68;;;;;;;2.98;54.88;99215.37;1808503;78;21387;-62
2021/03/21 09:56:40;;;;;;;16.27;11.25;;;;;;;3.06;54.24;99225.51;1808458;79;21076;-63
2021/03/21 09:59:35;;;;;;;23.75;12.70;;;;;;;3.11;53.68;99226.30;1808575;79;21478;-62
2021/03/21 10:02:27;;;;;;;23.25;14.10;;;;;;;3.12;54.17;99220.28;1808463;79;21045;-63
2021/03/21 10:05:16;;;;;;;21.97;13.90;;;;;;;3.15;53.93;99217.67;1808497;79;21056;-63
2021/03/21 10:08:20;;;;;;;23.55;11.70;;;;;;;3.22;54.70;99207.69;1808487;79;21135;-65
2021/03/21 10:10:58;;;;;;;22.40;12.47;;;;;;;3.28;53.39;99205.47;1782703;78;28656;-63
2021/03/21 10:13:38;;;;;;;25.92;12.30;;;;;;;3.30;53.54;99193.00;1757660;79;21085;-62
2021/03/21 10:16:29;;;;;;;23.98;12.60;;;;;;;3.38;53.09;99196.30;1808471;79;21208;-63
2021/03/21 10:19:03;;;;;;;27.70;12.70;;;;;;;3.46;53.08;99191.02;1808402;79;21061;-62
2021/03/21 10:21:34;;;;;;;22.60;12.23;;;;;;;3.50;53.04;99186.23;1808397;79;21148;-62
2021/03/21 10:24:14;;;;;;;18.82;11.18;;;;;;;3.51;52.80;99186.65;1808599;79;21136;-63
2021/03/21 10:27:23;;;;;;;41.45;13.18;;;;;;;3.50;52.44;99178.52;1808562;78;21585;-63
2021/03/21 10:30:14;;;;;;;47.70;13.05;;;;;;;3.49;51.28;99174.69;1808468;78;21120;-63
2021/03/21 10:32:45;;;;;;;16.97;11.30;;;;;;;3.53;50.81;99160.47;1807989;79;21173;-63
2021/03/21 10:35:27;;;;;;;19.73;10.75;;;;;;;3.54;50.70;99152.32;1807903;79;21361;-62
2021/03/21 10:38:05;;;;;;;18.45;11.43;;;;;;;3.53;51.00;99148.05;1807842;79;21287;-63
2021/03/21 10:40:39;;;;;;;22.30;12.07;;;;;;;3.56;51.80;99141.14;1807782;78;21482;-64
2021/03/21 10:43:24;;;;;;;18.62;11.55;;;;;;;3.61;51.80;99134.59;1807973;78;21581;-63
2021/03/21 10:45:54;;;;;;;26.35;13.68;;;;;;;3.60;51.99;99129.89;1807906;78;21081;-63
2021/03/21 10:48:30;;;;;;;18.02;12.00;;;;;;;3.63;52.89;99122.13;1807887;79;21363;-63
2021/03/21 10:51:07;;;;;;;29.18;11.83;;;;;;;3.70;52.56;99127.57;1807817;79;20938;-63
2021/03/21 10:53:53;;;;;;;23.20;10.68;;;;;;;3.75;51.59;99111.62;1807893;79;21078;-63
2021/03/21 10:56:21;;;;;;;25.90;11.43;;;;;;;3.74;50.68;99123.22;1790580;79;21153;-62
2021/03/21 10:59:24;;;;;;;37.48;13.55;;;;;;;3.73;50.33;99108.66;1807873;79;21045;-63
2021/03/21 11:02:22;;;;;;;21.75;12.15;;;;;;;3.74;52.22;99102.64;1808090;79;21338;-63
2021/03/21 11:05:01;;;;;;;26.37;11.57;;;;;;;3.86;51.87;99095.95;1807904;79;21524;-63
2021/03/21 11:07:28;;;;;;;18.15;11.53;;;;;;;3.97;51.26;99103.03;1807847;79;21046;-62
2021/03/21 11:10:03;;;;;;;20.68;12.20;;;;;;;4.07;51.40;99092.94;1807867;78;21684;-63
2021/03/21 11:12:34;;;;;;;21.55;11.57;;;;;;;4.13;49.85;99092.81;1807892;79;21045;-63
2021/03/21 11:15:38;;;;;;;74.72;15.65;;;;;;;4.16;48.71;99088.05;1807899;79;21132;-63
2021/03/21 11:18:27;;;;;;;;;;;;;;;4.15;48.76;99084.63;1810584;79;21073;-63
2021/03/21 11:21:06;;;;;;;27.58;11.73;;;;;;;4.13;49.18;99080.39;1807825;78;20213;-62
2021/03/21 11:23:45;;;;;;;22.58;11.80;;;;;;;4.12;48.76;99071.82;1807878;79;21038;-63
2021/03/21 11:26:29;;;;;;;18.40;12.80;;;;;;;4.10;48.67;99074.86;1807904;78;21120;-62
2021/03/21 11:29:13;;;;;;;30.02;12.90;;;;;;;4.17;49.43;99065.73;1807855;79;21376;-63
2021/03/21 11:31:48;;;;;;;14.65;11.55;;;;;;;4.29;48.92;99071.44;1806785;79;21152;-62
2021/03/21 11:34:28;;;;;;;14.13;11.80;;;;;;;4.35;47.27;99064.03;1807860;79;21505;-62
2021/03/21 11:37:16;;;;;;;26.85;13.35;;;;;;;4.37;48.60;99068.70;1807946;79;21078;-63
2021/03/21 11:40:04;;;;;;;16.05;12.00;;;;;;;4.44;49.18;99061.22;1804839;78;21064;-63
2021/03/21 11:42:41;;;;;;;17.95;13.35;;;;;;;4.54;48.89;99061.88;1777968;79;21390;-62
2021/03/21 11:45:22;;;;;;;22.02;12.80;;;;;;;4.62;48.56;99056.92;1807780;79;21164;-62
2021/03/21 11:47:59;;;;;;;37.55;17.02;;;;;;;4.68;47.67;99055.94;1807878;79;21129;-62
2021/03/21 11:50:32;;;;;;;24.77;14.87;;;;;;;4.68;48.19;99052.08;1807644;79;21073;-62
2021/03/21 11:53:00;;;;;;;25.72;12.70;;;;;;;4.74;47.84;99052.78;1807895;79;21109;-62
2021/03/21 11:55:38;;;;;;;15.78;12.93;;;;;;;4.84;46.44;99036.64;1807860;79;21371;-61
2021/03/21 11:58:23;;;;;;;15.30;12.45;;;;;;;4.91;46.69;99028.32;1807789;78;21137;-62
2021/03/21 12:01:24;;;;;;;25.75;13.50;;;;;;;4.96;46.60;99019.59;1807829;79;21129;-61
2021/03/21 12:03:59;;;;;;;15.90;12.88;;;;;;;5.01;46.02;99020.73;1807923;79;21113;-62
2021/03/21 12:06:35;;;;;;;19.45;12.68;;;;;;;5.05;46.56;99023.64;1807996;79;21038;-61
2021/03/21 12:09:30;;;;;;;34.38;15.20;;;;;;;5.08;46.37;99019.26;1807962;79;22293;-62
2021/03/21 12:12:02;;;;;;;21.33;13.78;;;;;;;5.05;46.84;99014.62;1807912;78;21502;-63
2021/03/21 12:14:48;;;;;;;16.48;12.10;;;;;;;5.02;46.73;99010.83;1807773;78;21022;-62
2021/03/21 12:17:28;;;;;;;15.05;12.90;;;;;;;4.96;45.84;99005.42;1807884;79;21049;-62
2021/03/21 12:20:08;;;;;;;13.03;11.30;;;;;;;4.84;45.92;99005.72;1807773;79;21212;-63
2021/03/21 12:22:38;;;;;;;14.55;11.45;;;;;;;4.79;46.06;98992.13;1756963;79;22812;-62
2021/03/21 12:25:27;;;;;;;18.48;12.63;;;;;;;4.70;46.58;98991.91;1807762;79;21212;-62
2021/03/21 12:28:18;;;;;;;25.10;13.10;;;;;;;4.61;47.40;98991.28;1807142;79;21073;-62
2021/03/21 12:30:55;;;;;;;17.80;11.33;;;;;;;4.53;47.54;98985.05;1804037;79;21511;-63
2021/03/21 12:33:31;;;;;;;21.45;13.22;;;;;;;4.50;47.43;98979.53;1807629;78;21128;-64
2021/03/21 12:36:14;;;;;;;36.93;14.80;;;;;;;4.52;47.75;98967.06;1807838;79;21392;-61
2021/03/21 12:38:48;;;;;;;19.67;12.20;;;;;;;4.54;48.45;98966.14;1807796;79;21131;-63